sensor_id;sensor_type;location;lat;lon;timestamp;temperature;humidity
10702;DHT22;5402;50.004;8.246;2023-05-25T00:02:24;11.30;99.90
10702;DHT22;5402;50.004;8.246;2023-05-25T00:04:51;11.20;99.90
10702;DHT22;5402;50.004;8.246;2023-05-25T00:07:18;11.10;99.90
10702;DHT22;5402;50.004;8.246;2023-05-25T00:09:44;11.10;99.90
10702;DHT22;5402;50.004;8.246;2023-05-25T00:12:12;11.10;99.90
10702;DHT22;5402;50.004;8.246;2023-05-25T00:14:40;11.10;99.90
10702;DHT22;5402;50.004;8.246;2023-05-25T00:17:07;11.10;99.90
10702;DHT22;5402;50.004;8.246;2023-05-25T00:19:35;11.20;99.90
10702;DHT22;5402;50.004;8.246;2023-05-25T00:22:02;11.20;99.90
10702;DHT22;5402;50.004;8.246;2023-05-25T00:24:29;11.20;99.90
10702;DHT22;5402;50.004;8.246;2023-05-25T00:26:56;11.20;99.90
10702;DHT22;5402;50.004;8.246;2023-05-25T00:29:23;11.10;99.90
10702;DHT22;5402;50.004;8.246;2023-05-25T00:31:51;11.20;99.90
10702;DHT22;5402;50.004;8.246;2023-05-25T00:34:19;11.10;99.90
10702;DHT22;5402;50.004;8.246;2023-05-25T00:36:46;11.10;99.90
10702;DHT22;5402;50.004;8.246;2023-05-25T00:39:13;11.10;99.90
10702;DHT22;5402;50.004;8.246;2023-05-25T00:41:41;11.10;99.90
10702;DHT22;5402;50.004;8.246;2023-05-25T00:44:09;11.10;99.90
10702;DHT22;5402;50.004;8.246;2023-05-25T00:46:36;11.10;99.90
10702;DHT22;5402;50.004;8.246;2023-05-25T00:49:05;11.10;99.90
10702;DHT22;5402;50.004;8.246;2023-05-25T00:51:31;11.10;99.90
10702;DHT22;5402;50.004;8.246;2023-05-25T00:54:01;11.10;99.90
10702;DHT22;5402;50.004;8.246;2023-05-25T00:56:30;11.10;99.90
10702;DHT22;5402;50.004;8.246;2023-05-25T00:59:03;11.10;99.90
10702;DHT22;5402;50.004;8.246;2023-05-25T01:01:32;11.10;99.90
10702;DHT22;5402;50.004;8.246;2023-05-25T01:04:08;11.10;99.90
10702;DHT22;5402;50.004;8.246;2023-05-25T01:06:39;11.10;99.90
10702;DHT22;5402;50.004;8.246;2023-05-25T01:09:10;11.10;99.90
10702;DHT22;5402;50.004;8.246;2023-05-25T01:11:41;11.10;99.90
10702;DHT22;5402;50.004;8.246;2023-05-25T01:14:08;11.00;99.90
10702;DHT22;5402;50.004;8.246;2023-05-25T01:16:35;10.90;99.90
10702;DHT22;5402;50.004;8.246;2023-05-25T01:19:03;10.90;99.90
10702;DHT22;5402;50.004;8.246;2023-05-25T01:21:34;11.00;99.90
10702;DHT22;5402;50.004;8.246;2023-05-25T01:24:14;10.90;99.90
10702;DHT22;5402;50.004;8.246;2023-05-25T01:26:51;10.90;99.90
10702;DHT22;5402;50.004;8.246;2023-05-25T01:29:21;10.90;99.90
10702;DHT22;5402;50.004;8.246;2023-05-25T01:31:49;10.80;99.90
10702;DHT22;5402;50.004;8.246;2023-05-25T01:34:17;10.80;99.90
10702;DHT22;5402;50.004;8.246;2023-05-25T01:36:46;10.80;99.90
10702;DHT22;5402;50.004;8.246;2023-05-25T01:39:13;10.80;99.90
10702;DHT22;5402;50.004;8.246;2023-05-25T01:41:39;10.80;99.90
10702;DHT22;5402;50.004;8.246;2023-05-25T01:44:06;10.70;99.90
10702;DHT22;5402;50.004;8.246;2023-05-25T01:46:36;10.70;99.90
10702;DHT22;5402;50.004;8.246;2023-05-25T01:49:20;10.80;99.90
10702;DHT22;5402;50.004;8.246;2023-05-25T01:51:57;10.70;99.90
10702;DHT22;5402;50.004;8.246;2023-05-25T01:54:29;10.70;99.90
10702;DHT22;5402;50.004;8.246;2023-05-25T01:56:58;10.60;99.90
10702;DHT22;5402;50.004;8.246;2023-05-25T01:59:27;10.70;99.90
10702;DHT22;5402;50.004;8.246;2023-05-25T02:01:56;10.70;99.90
10702;DHT22;5402;50.004;8.246;2023-05-25T02:04:23;10.60;99.90
10702;DHT22;5402;50.004;8.246;2023-05-25T02:06:52;10.60;99.90
10702;DHT22;5402;50.004;8.246;2023-05-25T02:09:19;10.50;99.90
10702;DHT22;5402;50.004;8.246;2023-05-25T02:11:46;10.50;99.90
10702;DHT22;5402;50.004;8.246;2023-05-25T02:14:13;10.50;99.90
10702;DHT22;5402;50.004;8.246;2023-05-25T02:16:39;10.50;99.90
10702;DHT22;5402;50.004;8.246;2023-05-25T02:19:07;10.50;99.90
10702;DHT22;5402;50.004;8.246;2023-05-25T02:21:35;10.50;99.90
10702;DHT22;5402;50.004;8.246;2023-05-25T02:24:04;10.40;99.90
10702;DHT22;5402;50.004;8.246;2023-05-25T02:26:33;10.40;99.90
10702;DHT22;5402;50.004;8.246;2023-05-25T02:29:00;10.30;99.90
10702;DHT22;5402;50.004;8.246;2023-05-25T02:31:27;10.30;99.90
10702;DHT22;5402;50.004;8.246;2023-05-25T02:33:55;10.30;99.90
10702;DHT22;5402;50.004;8.246;2023-05-25T02:36:22;10.20;99.90
10702;DHT22;5402;50.004;8.246;2023-05-25T02:38:49;10.30;99.90
10702;DHT22;5402;50.004;8.246;2023-05-25T02:41:19;10.20;99.90
10702;DHT22;5402;50.004;8.246;2023-05-25T02:43:46;10.10;99.90
10702;DHT22;5402;50.004;8.246;2023-05-25T02:46:13;10.00;99.90
10702;DHT22;5402;50.004;8.246;2023-05-25T02:48:40;10.10;99.90
10702;DHT22;5402;50.004;8.246;2023-05-25T02:51:07;10.10;99.90
10702;DHT22;5402;50.004;8.246;2023-05-25T02:53:34;10.10;99.90
10702;DHT22;5402;50.004;8.246;2023-05-25T02:56:01;10.10;99.90
10702;DHT22;5402;50.004;8.246;2023-05-25T02:58:29;10.10;99.90
10702;DHT22;5402;50.004;8.246;2023-05-25T03:00:56;10.00;99.90
10702;DHT22;5402;50.004;8.246;2023-05-25T03:03:24;10.00;99.90
10702;DHT22;5402;50.004;8.246;2023-05-25T03:05:51;10.00;99.90
10702;DHT22;5402;50.004;8.246;2023-05-25T03:08:18;10.00;99.90
10702;DHT22;5402;50.004;8.246;2023-05-25T03:10:45;9.90;99.90
10702;DHT22;5402;50.004;8.246;2023-05-25T03:13:11;9.90;99.90
10702;DHT22;5402;50.004;8.246;2023-05-25T03:15:40;9.90;99.90
10702;DHT22;5402;50.004;8.246;2023-05-25T03:18:07;9.90;99.90
10702;DHT22;5402;50.004;8.246;2023-05-25T03:20:34;9.90;99.90
10702;DHT22;5402;50.004;8.246;2023-05-25T03:23:01;9.90;99.90
10702;DHT22;5402;50.004;8.246;2023-05-25T03:25:28;9.90;99.90
10702;DHT22;5402;50.004;8.246;2023-05-25T03:27:55;9.80;99.90
10702;DHT22;5402;50.004;8.246;2023-05-25T03:30:22;9.80;99.90
10702;DHT22;5402;50.004;8.246;2023-05-25T03:32:50;9.80;99.90
10702;DHT22;5402;50.004;8.246;2023-05-25T03:35:17;9.80;99.90
10702;DHT22;5402;50.004;8.246;2023-05-25T03:37:44;9.80;99.90
10702;DHT22;5402;50.004;8.246;2023-05-25T03:40:11;9.70;99.90
10702;DHT22;5402;50.004;8.246;2023-05-25T03:42:38;9.60;99.90
10702;DHT22;5402;50.004;8.246;2023-05-25T03:45:06;9.60;99.90
10702;DHT22;5402;50.004;8.246;2023-05-25T03:47:34;9.60;99.90
10702;DHT22;5402;50.004;8.246;2023-05-25T03:50:03;9.50;99.90
10702;DHT22;5402;50.004;8.246;2023-05-25T03:52:30;9.50;99.90
10702;DHT22;5402;50.004;8.246;2023-05-25T03:54:57;9.50;99.90
10702;DHT22;5402;50.004;8.246;2023-05-25T03:57:26;9.50;99.90
10702;DHT22;5402;50.004;8.246;2023-05-25T03:59:52;9.50;99.90
10702;DHT22;5402;50.004;8.246;2023-05-25T04:02:19;9.60;99.90
10702;DHT22;5402;50.004;8.246;2023-05-25T04:04:46;9.70;99.90
10702;DHT22;5402;50.004;8.246;2023-05-25T04:07:20;9.80;99.90
10702;DHT22;5402;50.004;8.246;2023-05-25T04:09:46;9.70;99.90
10702;DHT22;5402;50.004;8.246;2023-05-25T04:12:13;9.90;99.90
10702;DHT22;5402;50.004;8.246;2023-05-25T04:14:40;9.80;99.90
10702;DHT22;5402;50.004;8.246;2023-05-25T04:17:07;9.80;99.90
10702;DHT22;5402;50.004;8.246;2023-05-25T04:19:34;9.90;99.90
10702;DHT22;5402;50.004;8.246;2023-05-25T04:22:01;10.00;99.90
10702;DHT22;5402;50.004;8.246;2023-05-25T04:24:30;10.10;99.90
10702;DHT22;5402;50.004;8.246;2023-05-25T04:26:57;10.10;99.90
10702;DHT22;5402;50.004;8.246;2023-05-25T04:29:24;10.20;99.90
10702;DHT22;5402;50.004;8.246;2023-05-25T04:31:51;10.40;99.90
10702;DHT22;5402;50.004;8.246;2023-05-25T04:34:18;10.40;99.90
10702;DHT22;5402;50.004;8.246;2023-05-25T04:36:46;10.50;99.90
10702;DHT22;5402;50.004;8.246;2023-05-25T04:39:13;10.40;99.90
10702;DHT22;5402;50.004;8.246;2023-05-25T04:41:41;10.70;99.90
10702;DHT22;5402;50.004;8.246;2023-05-25T04:44:09;10.90;99.90
10702;DHT22;5402;50.004;8.246;2023-05-25T04:46:35;11.10;99.90
10702;DHT22;5402;50.004;8.246;2023-05-25T04:49:03;11.10;99.90
10702;DHT22;5402;50.004;8.246;2023-05-25T04:51:30;11.20;99.90
10702;DHT22;5402;50.004;8.246;2023-05-25T04:53:57;11.30;99.90
10702;DHT22;5402;50.004;8.246;2023-05-25T04:56:24;11.40;99.90
10702;DHT22;5402;50.004;8.246;2023-05-25T04:58:52;11.50;99.90
10702;DHT22;5402;50.004;8.246;2023-05-25T05:01:19;11.60;99.90
10702;DHT22;5402;50.004;8.246;2023-05-25T05:03:47;11.70;99.90
10702;DHT22;5402;50.004;8.246;2023-05-25T05:06:14;11.90;99.90
10702;DHT22;5402;50.004;8.246;2023-05-25T05:08:40;12.00;99.90
10702;DHT22;5402;50.004;8.246;2023-05-25T05:11:07;12.10;99.90
10702;DHT22;5402;50.004;8.246;2023-05-25T05:13:34;12.20;99.90
10702;DHT22;5402;50.004;8.246;2023-05-25T05:16:03;12.20;99.90
10702;DHT22;5402;50.004;8.246;2023-05-25T05:18:30;12.30;99.90
10702;DHT22;5402;50.004;8.246;2023-05-25T05:20:57;12.30;99.90
10702;DHT22;5402;50.004;8.246;2023-05-25T05:23:24;12.40;99.90
10702;DHT22;5402;50.004;8.246;2023-05-25T05:25:51;12.40;99.90
10702;DHT22;5402;50.004;8.246;2023-05-25T05:28:18;12.40;99.90
10702;DHT22;5402;50.004;8.246;2023-05-25T05:30:45;12.50;99.90
10702;DHT22;5402;50.004;8.246;2023-05-25T05:33:13;12.40;99.90
10702;DHT22;5402;50.004;8.246;2023-05-25T05:35:40;12.50;99.90
10702;DHT22;5402;50.004;8.246;2023-05-25T05:38:06;12.60;99.90
10702;DHT22;5402;50.004;8.246;2023-05-25T05:40:33;12.60;99.90
10702;DHT22;5402;50.004;8.246;2023-05-25T05:43:00;12.80;99.90
10702;DHT22;5402;50.004;8.246;2023-05-25T05:45:28;12.80;99.90
10702;DHT22;5402;50.004;8.246;2023-05-25T05:47:55;12.80;99.90
10702;DHT22;5402;50.004;8.246;2023-05-25T05:50:23;12.90;99.90
10702;DHT22;5402;50.004;8.246;2023-05-25T05:52:50;12.90;99.90
10702;DHT22;5402;50.004;8.246;2023-05-25T05:55:19;12.90;99.90
10702;DHT22;5402;50.004;8.246;2023-05-25T05:57:46;13.00;99.90
10702;DHT22;5402;50.004;8.246;2023-05-25T06:00:14;13.00;99.90
10702;DHT22;5402;50.004;8.246;2023-05-25T06:02:41;13.10;99.90
10702;DHT22;5402;50.004;8.246;2023-05-25T06:05:08;13.20;99.90
10702;DHT22;5402;50.004;8.246;2023-05-25T06:07:36;13.20;99.90
10702;DHT22;5402;50.004;8.246;2023-05-25T06:10:04;13.30;99.90
10702;DHT22;5402;50.004;8.246;2023-05-25T06:12:31;13.30;99.90
10702;DHT22;5402;50.004;8.246;2023-05-25T06:14:57;13.40;99.90
10702;DHT22;5402;50.004;8.246;2023-05-25T06:17:24;13.50;99.90
10702;DHT22;5402;50.004;8.246;2023-05-25T06:19:51;13.50;99.90
10702;DHT22;5402;50.004;8.246;2023-05-25T06:22:17;13.60;99.90
10702;DHT22;5402;50.004;8.246;2023-05-25T06:24:45;13.70;99.90
10702;DHT22;5402;50.004;8.246;2023-05-25T06:27:12;13.70;99.90
10702;DHT22;5402;50.004;8.246;2023-05-25T06:29:39;13.70;99.90
10702;DHT22;5402;50.004;8.246;2023-05-25T06:32:06;13.80;99.90
10702;DHT22;5402;50.004;8.246;2023-05-25T06:34:35;13.90;99.90
10702;DHT22;5402;50.004;8.246;2023-05-25T06:37:01;14.00;99.90
10702;DHT22;5402;50.004;8.246;2023-05-25T06:39:28;14.10;99.90
10702;DHT22;5402;50.004;8.246;2023-05-25T06:41:56;14.10;99.90
10702;DHT22;5402;50.004;8.246;2023-05-25T06:44:23;14.10;99.90
10702;DHT22;5402;50.004;8.246;2023-05-25T06:46:49;14.20;99.90
10702;DHT22;5402;50.004;8.246;2023-05-25T06:49:16;14.30;99.90
10702;DHT22;5402;50.004;8.246;2023-05-25T06:51:43;14.30;99.90
10702;DHT22;5402;50.004;8.246;2023-05-25T06:54:09;14.40;99.90
10702;DHT22;5402;50.004;8.246;2023-05-25T06:56:39;14.40;99.90
10702;DHT22;5402;50.004;8.246;2023-05-25T06:59:07;14.50;99.90
10702;DHT22;5402;50.004;8.246;2023-05-25T07:01:34;14.60;99.90
10702;DHT22;5402;50.004;8.246;2023-05-25T07:04:00;14.60;99.90
10702;DHT22;5402;50.004;8.246;2023-05-25T07:06:27;14.60;99.90
10702;DHT22;5402;50.004;8.246;2023-05-25T07:08:54;14.70;99.90
10702;DHT22;5402;50.004;8.246;2023-05-25T07:11:21;14.70;99.90
10702;DHT22;5402;50.004;8.246;2023-05-25T07:13:47;14.80;99.90
10702;DHT22;5402;50.004;8.246;2023-05-25T07:16:15;14.90;99.90
10702;DHT22;5402;50.004;8.246;2023-05-25T07:18:42;14.90;99.90
10702;DHT22;5402;50.004;8.246;2023-05-25T07:21:09;14.90;99.90
10702;DHT22;5402;50.004;8.246;2023-05-25T07:23:36;15.00;99.90
10702;DHT22;5402;50.004;8.246;2023-05-25T07:26:04;15.00;99.90
10702;DHT22;5402;50.004;8.246;2023-05-25T07:28:31;15.00;99.90
10702;DHT22;5402;50.004;8.246;2023-05-25T07:30:58;15.10;99.90
10702;DHT22;5402;50.004;8.246;2023-05-25T07:33:26;15.10;99.90
10702;DHT22;5402;50.004;8.246;2023-05-25T07:35:52;15.10;99.90
10702;DHT22;5402;50.004;8.246;2023-05-25T07:38:19;15.20;99.90
10702;DHT22;5402;50.004;8.246;2023-05-25T07:40:46;15.30;99.90
10702;DHT22;5402;50.004;8.246;2023-05-25T07:43:13;15.40;99.90
10702;DHT22;5402;50.004;8.246;2023-05-25T07:45:42;15.50;99.90
10702;DHT22;5402;50.004;8.246;2023-05-25T07:48:08;15.60;99.90
10702;DHT22;5402;50.004;8.246;2023-05-25T07:50:36;15.70;99.90
10702;DHT22;5402;50.004;8.246;2023-05-25T07:53:03;15.70;99.90
10702;DHT22;5402;50.004;8.246;2023-05-25T07:55:30;15.80;99.90
10702;DHT22;5402;50.004;8.246;2023-05-25T07:57:56;15.90;99.90
10702;DHT22;5402;50.004;8.246;2023-05-25T08:00:24;16.10;99.90
10702;DHT22;5402;50.004;8.246;2023-05-25T08:02:50;16.20;99.90
10702;DHT22;5402;50.004;8.246;2023-05-25T08:05:17;16.30;99.90
10702;DHT22;5402;50.004;8.246;2023-05-25T08:07:45;16.30;99.90
10702;DHT22;5402;50.004;8.246;2023-05-25T08:10:12;16.30;99.90
10702;DHT22;5402;50.004;8.246;2023-05-25T08:12:39;16.40;99.90
10702;DHT22;5402;50.004;8.246;2023-05-25T08:15:06;16.50;99.90
10702;DHT22;5402;50.004;8.246;2023-05-25T08:17:33;16.70;99.90
10702;DHT22;5402;50.004;8.246;2023-05-25T08:20:00;16.90;99.90
10702;DHT22;5402;50.004;8.246;2023-05-25T08:22:27;17.00;99.90
10702;DHT22;5402;50.004;8.246;2023-05-25T08:24:55;17.00;99.90
10702;DHT22;5402;50.004;8.246;2023-05-25T08:27:23;17.20;99.90
10702;DHT22;5402;50.004;8.246;2023-05-25T08:29:49;17.40;99.90
10702;DHT22;5402;50.004;8.246;2023-05-25T08:32:16;17.30;99.60
10702;DHT22;5402;50.004;8.246;2023-05-25T08:34:43;17.60;99.70
10702;DHT22;5402;50.004;8.246;2023-05-25T08:37:09;17.70;98.90
10702;DHT22;5402;50.004;8.246;2023-05-25T08:39:36;17.60;98.50
10702;DHT22;5402;50.004;8.246;2023-05-25T08:42:05;17.80;97.90
10702;DHT22;5402;50.004;8.246;2023-05-25T08:44:35;17.90;98.30
10702;DHT22;5402;50.004;8.246;2023-05-25T08:47:05;18.00;98.20
10702;DHT22;5402;50.004;8.246;2023-05-25T08:49:33;18.10;97.70
10702;DHT22;5402;50.004;8.246;2023-05-25T08:52:03;18.20;97.80
10702;DHT22;5402;50.004;8.246;2023-05-25T08:54:34;18.30;98.40
10702;DHT22;5402;50.004;8.246;2023-05-25T08:57:07;18.50;98.10
10702;DHT22;5402;50.004;8.246;2023-05-25T08:59:40;18.80;97.50
10702;DHT22;5402;50.004;8.246;2023-05-25T09:02:20;18.90;96.30
10702;DHT22;5402;50.004;8.246;2023-05-25T09:04:47;18.90;96.50
10702;DHT22;5402;50.004;8.246;2023-05-25T09:07:14;19.00;96.50
10702;DHT22;5402;50.004;8.246;2023-05-25T09:09:41;19.00;96.40
10702;DHT22;5402;50.004;8.246;2023-05-25T09:12:11;19.00;96.50
10702;DHT22;5402;50.004;8.246;2023-05-25T09:14:38;19.10;95.70
10702;DHT22;5402;50.004;8.246;2023-05-25T09:17:10;19.30;96.00
10702;DHT22;5402;50.004;8.246;2023-05-25T09:19:37;19.50;96.00
10702;DHT22;5402;50.004;8.246;2023-05-25T09:22:04;19.60;95.70
10702;DHT22;5402;50.004;8.246;2023-05-25T09:24:31;19.50;95.40
10702;DHT22;5402;50.004;8.246;2023-05-25T09:26:58;19.60;95.60
10702;DHT22;5402;50.004;8.246;2023-05-25T09:29:26;19.60;95.70
10702;DHT22;5402;50.004;8.246;2023-05-25T09:31:53;19.60;95.70
10702;DHT22;5402;50.004;8.246;2023-05-25T09:34:20;19.60;96.00
10702;DHT22;5402;50.004;8.246;2023-05-25T09:36:47;19.70;95.80
10702;DHT22;5402;50.004;8.246;2023-05-25T09:39:15;19.70;96.00
10702;DHT22;5402;50.004;8.246;2023-05-25T09:41:43;19.80;96.00
10702;DHT22;5402;50.004;8.246;2023-05-25T09:44:10;19.90;96.50
10702;DHT22;5402;50.004;8.246;2023-05-25T09:46:38;20.10;96.40
10702;DHT22;5402;50.004;8.246;2023-05-25T09:49:07;20.00;96.30
10702;DHT22;5402;50.004;8.246;2023-05-25T09:51:34;20.00;96.10
10702;DHT22;5402;50.004;8.246;2023-05-25T09:54:02;19.80;96.20
10702;DHT22;5402;50.004;8.246;2023-05-25T09:56:30;19.60;96.40
10702;DHT22;5402;50.004;8.246;2023-05-25T09:58:57;19.40;96.50
10702;DHT22;5402;50.004;8.246;2023-05-25T10:01:24;19.50;97.10
10702;DHT22;5402;50.004;8.246;2023-05-25T10:03:54;19.70;97.20
10702;DHT22;5402;50.004;8.246;2023-05-25T10:06:21;19.70;97.10
10702;DHT22;5402;50.004;8.246;2023-05-25T10:08:49;19.60;96.90
10702;DHT22;5402;50.004;8.246;2023-05-25T10:11:18;19.70;97.10
10702;DHT22;5402;50.004;8.246;2023-05-25T10:13:47;19.80;97.50
10702;DHT22;5402;50.004;8.246;2023-05-25T10:16:16;19.70;97.30
10702;DHT22;5402;50.004;8.246;2023-05-25T10:18:47;19.80;96.90
10702;DHT22;5402;50.004;8.246;2023-05-25T10:21:17;19.70;96.20
10702;DHT22;5402;50.004;8.246;2023-05-25T10:23:46;19.70;96.70
10702;DHT22;5402;50.004;8.246;2023-05-25T10:26:17;19.50;97.20
10702;DHT22;5402;50.004;8.246;2023-05-25T10:28:45;19.60;97.40
10702;DHT22;5402;50.004;8.246;2023-05-25T10:31:13;19.60;96.90
10702;DHT22;5402;50.004;8.246;2023-05-25T10:33:43;19.50;97.00
10702;DHT22;5402;50.004;8.246;2023-05-25T10:36:10;19.60;97.30
10702;DHT22;5402;50.004;8.246;2023-05-25T10:38:40;19.60;97.00
10702;DHT22;5402;50.004;8.246;2023-05-25T10:41:09;19.70;97.40
10702;DHT22;5402;50.004;8.246;2023-05-25T10:43:37;19.70;97.50
10702;DHT22;5402;50.004;8.246;2023-05-25T10:46:05;19.80;97.10
10702;DHT22;5402;50.004;8.246;2023-05-25T10:48:36;19.80;97.30
10702;DHT22;5402;50.004;8.246;2023-05-25T10:51:03;19.90;97.00
10702;DHT22;5402;50.004;8.246;2023-05-25T10:53:30;19.80;97.50
10702;DHT22;5402;50.004;8.246;2023-05-25T10:56:03;19.70;97.20
10702;DHT22;5402;50.004;8.246;2023-05-25T10:58:31;19.70;97.20
10702;DHT22;5402;50.004;8.246;2023-05-25T11:00:59;19.50;97.50
10702;DHT22;5402;50.004;8.246;2023-05-25T11:03:55;19.50;97.30
10702;DHT22;5402;50.004;8.246;2023-05-25T11:09:29;19.70;97.10
10702;DHT22;5402;50.004;8.246;2023-05-25T11:12:06;19.90;96.60
10702;DHT22;5402;50.004;8.246;2023-05-25T11:14:33;19.90;97.00
10702;DHT22;5402;50.004;8.246;2023-05-25T11:17:06;20.00;96.90
10702;DHT22;5402;50.004;8.246;2023-05-25T11:19:38;20.10;97.00
10702;DHT22;5402;50.004;8.246;2023-05-25T11:22:13;20.30;97.10
10702;DHT22;5402;50.004;8.246;2023-05-25T11:24:41;20.00;97.20
10702;DHT22;5402;50.004;8.246;2023-05-25T11:27:11;20.10;97.10
10702;DHT22;5402;50.004;8.246;2023-05-25T11:29:38;20.20;97.00
10702;DHT22;5402;50.004;8.246;2023-05-25T11:32:11;20.20;96.70
10702;DHT22;5402;50.004;8.246;2023-05-25T11:34:38;20.10;96.80
10702;DHT22;5402;50.004;8.246;2023-05-25T11:37:11;20.10;97.30
10702;DHT22;5402;50.004;8.246;2023-05-25T11:39:40;20.40;96.70
10702;DHT22;5402;50.004;8.246;2023-05-25T11:42:09;20.60;96.50
10702;DHT22;5402;50.004;8.246;2023-05-25T11:44:37;20.70;96.20
10702;DHT22;5402;50.004;8.246;2023-05-25T11:47:06;20.80;95.70
10702;DHT22;5402;50.004;8.246;2023-05-25T11:49:34;20.90;95.80
10702;DHT22;5402;50.004;8.246;2023-05-25T11:52:04;20.80;95.50
10702;DHT22;5402;50.004;8.246;2023-05-25T11:54:31;20.80;95.80
10702;DHT22;5402;50.004;8.246;2023-05-25T11:56:58;20.80;95.70
10702;DHT22;5402;50.004;8.246;2023-05-25T11:59:28;20.80;95.70
10702;DHT22;5402;50.004;8.246;2023-05-25T12:01:56;20.90;96.10
10702;DHT22;5402;50.004;8.246;2023-05-25T12:04:23;21.00;95.60
10702;DHT22;5402;50.004;8.246;2023-05-25T12:06:50;21.20;96.30
10702;DHT22;5402;50.004;8.246;2023-05-25T12:09:20;21.00;95.30
10702;DHT22;5402;50.004;8.246;2023-05-25T12:11:48;21.10;95.30
10702;DHT22;5402;50.004;8.246;2023-05-25T12:14:15;21.30;95.50
10702;DHT22;5402;50.004;8.246;2023-05-25T12:16:44;21.30;95.40
10702;DHT22;5402;50.004;8.246;2023-05-25T12:19:11;21.30;94.90
10702;DHT22;5402;50.004;8.246;2023-05-25T12:21:39;21.40;94.40
10702;DHT22;5402;50.004;8.246;2023-05-25T12:24:07;21.60;93.90
10702;DHT22;5402;50.004;8.246;2023-05-25T12:26:34;21.80;93.50
10702;DHT22;5402;50.004;8.246;2023-05-25T12:29:11;21.90;92.90
10702;DHT22;5402;50.004;8.246;2023-05-25T12:31:39;21.90;93.10
10702;DHT22;5402;50.004;8.246;2023-05-25T12:34:08;22.00;92.90
10702;DHT22;5402;50.004;8.246;2023-05-25T12:36:43;22.00;92.80
10702;DHT22;5402;50.004;8.246;2023-05-25T12:39:12;21.90;93.10
10702;DHT22;5402;50.004;8.246;2023-05-25T12:41:47;21.80;93.50
10702;DHT22;5402;50.004;8.246;2023-05-25T12:44:21;22.00;93.50
10702;DHT22;5402;50.004;8.246;2023-05-25T12:46:49;22.10;92.70
10702;DHT22;5402;50.004;8.246;2023-05-25T12:49:25;22.00;93.60
10702;DHT22;5402;50.004;8.246;2023-05-25T12:51:53;22.10;92.40
10702;DHT22;5402;50.004;8.246;2023-05-25T12:54:39;22.20;92.40
10702;DHT22;5402;50.004;8.246;2023-05-25T12:57:10;22.20;92.60
10702;DHT22;5402;50.004;8.246;2023-05-25T12:59:37;22.30;92.10
10702;DHT22;5402;50.004;8.246;2023-05-25T13:02:04;22.10;92.90
10702;DHT22;5402;50.004;8.246;2023-05-25T13:04:33;22.20;92.60
10702;DHT22;5402;50.004;8.246;2023-05-25T13:07:00;21.90;93.20
10702;DHT22;5402;50.004;8.246;2023-05-25T13:09:28;22.10;92.50
10702;DHT22;5402;50.004;8.246;2023-05-25T13:11:55;22.10;92.90
10702;DHT22;5402;50.004;8.246;2023-05-25T13:14:23;22.20;92.60
10702;DHT22;5402;50.004;8.246;2023-05-25T13:16:51;22.20;92.80
10702;DHT22;5402;50.004;8.246;2023-05-25T13:19:19;22.30;92.90
10702;DHT22;5402;50.004;8.246;2023-05-25T13:21:47;22.20;92.70
10702;DHT22;5402;50.004;8.246;2023-05-25T13:24:15;22.10;92.40
10702;DHT22;5402;50.004;8.246;2023-05-25T13:26:42;22.10;92.00
10702;DHT22;5402;50.004;8.246;2023-05-25T13:29:09;22.10;92.10
10702;DHT22;5402;50.004;8.246;2023-05-25T13:31:36;22.20;92.20
10702;DHT22;5402;50.004;8.246;2023-05-25T13:34:03;22.20;92.20
10702;DHT22;5402;50.004;8.246;2023-05-25T13:36:30;22.20;92.90
10702;DHT22;5402;50.004;8.246;2023-05-25T13:39:00;22.20;92.40
10702;DHT22;5402;50.004;8.246;2023-05-25T13:41:29;22.10;92.50
10702;DHT22;5402;50.004;8.246;2023-05-25T13:43:56;22.10;92.00
10702;DHT22;5402;50.004;8.246;2023-05-25T13:46:22;22.10;92.20
10702;DHT22;5402;50.004;8.246;2023-05-25T13:48:49;22.10;92.50
10702;DHT22;5402;50.004;8.246;2023-05-25T13:51:16;22.20;92.40
10702;DHT22;5402;50.004;8.246;2023-05-25T13:53:43;22.20;91.80
10702;DHT22;5402;50.004;8.246;2023-05-25T13:56:11;22.20;91.80
10702;DHT22;5402;50.004;8.246;2023-05-25T13:58:38;22.40;92.30
10702;DHT22;5402;50.004;8.246;2023-05-25T14:01:04;22.30;91.10
10702;DHT22;5402;50.004;8.246;2023-05-25T14:03:31;21.90;91.70
10702;DHT22;5402;50.004;8.246;2023-05-25T14:05:58;22.00;91.50
10702;DHT22;5402;50.004;8.246;2023-05-25T14:08:25;22.00;92.20
10702;DHT22;5402;50.004;8.246;2023-05-25T14:10:52;22.10;91.70
10702;DHT22;5402;50.004;8.246;2023-05-25T14:13:20;22.20;91.70
10702;DHT22;5402;50.004;8.246;2023-05-25T14:15:47;22.30;91.30
10702;DHT22;5402;50.004;8.246;2023-05-25T14:18:13;22.40;91.10
10702;DHT22;5402;50.004;8.246;2023-05-25T14:20:40;22.40;90.90
10702;DHT22;5402;50.004;8.246;2023-05-25T14:23:07;22.50;91.20
10702;DHT22;5402;50.004;8.246;2023-05-25T14:25:34;22.50;91.00
10702;DHT22;5402;50.004;8.246;2023-05-25T14:28:01;22.50;90.90
10702;DHT22;5402;50.004;8.246;2023-05-25T14:30:29;22.50;90.70
10702;DHT22;5402;50.004;8.246;2023-05-25T14:32:56;22.60;90.80
10702;DHT22;5402;50.004;8.246;2023-05-25T14:35:22;22.50;90.40
10702;DHT22;5402;50.004;8.246;2023-05-25T14:37:49;22.40;90.90
10702;DHT22;5402;50.004;8.246;2023-05-25T14:40:16;22.50;90.60
10702;DHT22;5402;50.004;8.246;2023-05-25T14:42:44;22.60;90.60
10702;DHT22;5402;50.004;8.246;2023-05-25T14:45:11;22.60;90.80
10702;DHT22;5402;50.004;8.246;2023-05-25T14:47:39;22.60;90.30
10702;DHT22;5402;50.004;8.246;2023-05-25T14:50:06;22.70;90.20
10702;DHT22;5402;50.004;8.246;2023-05-25T14:52:34;22.70;89.60
10702;DHT22;5402;50.004;8.246;2023-05-25T14:55:01;22.60;90.20
10702;DHT22;5402;50.004;8.246;2023-05-25T14:57:28;22.70;90.80
10702;DHT22;5402;50.004;8.246;2023-05-25T14:59:55;22.80;90.90
10702;DHT22;5402;50.004;8.246;2023-05-25T15:02:22;22.90;90.40
10702;DHT22;5402;50.004;8.246;2023-05-25T15:04:51;22.90;90.20
10702;DHT22;5402;50.004;8.246;2023-05-25T15:07:19;22.80;90.40
10702;DHT22;5402;50.004;8.246;2023-05-25T15:09:46;22.70;90.50
10702;DHT22;5402;50.004;8.246;2023-05-25T15:12:13;22.70;90.40
10702;DHT22;5402;50.004;8.246;2023-05-25T15:14:40;22.70;90.00
10702;DHT22;5402;50.004;8.246;2023-05-25T15:17:08;22.80;90.30
10702;DHT22;5402;50.004;8.246;2023-05-25T15:19:35;22.70;90.00
10702;DHT22;5402;50.004;8.246;2023-05-25T15:22:03;22.70;90.10
10702;DHT22;5402;50.004;8.246;2023-05-25T15:24:30;22.90;90.10
10702;DHT22;5402;50.004;8.246;2023-05-25T15:26:57;22.90;89.00
10702;DHT22;5402;50.004;8.246;2023-05-25T15:29:24;23.00;89.30
10702;DHT22;5402;50.004;8.246;2023-05-25T15:31:51;23.20;89.30
10702;DHT22;5402;50.004;8.246;2023-05-25T15:34:18;23.30;89.60
10702;DHT22;5402;50.004;8.246;2023-05-25T15:36:45;23.30;89.90
10702;DHT22;5402;50.004;8.246;2023-05-25T15:39:13;23.40;89.40
10702;DHT22;5402;50.004;8.246;2023-05-25T15:41:41;23.50;89.90
10702;DHT22;5402;50.004;8.246;2023-05-25T15:44:08;23.70;89.50
10702;DHT22;5402;50.004;8.246;2023-05-25T15:46:37;23.70;88.20
10702;DHT22;5402;50.004;8.246;2023-05-25T15:49:05;23.60;88.70
10702;DHT22;5402;50.004;8.246;2023-05-25T15:51:36;23.80;88.70
10702;DHT22;5402;50.004;8.246;2023-05-25T15:54:03;24.20;88.20
10702;DHT22;5402;50.004;8.246;2023-05-25T15:56:31;24.50;88.00